createdAt,value
2018-02-10T00:00:06.395Z,26.53
2018-02-10T00:02:33.878Z,31.47
2018-02-10T00:05:01.419Z,24.70
2018-02-10T00:07:28.939Z,28.97
2018-02-10T00:09:57.258Z,29.43
2018-02-10T00:12:24.830Z,29.73
2018-02-10T00:14:52.367Z,32.17
2018-02-10T00:17:19.943Z,28.73
2018-02-10T00:19:47.434Z,31.53
2018-02-10T00:22:26.807Z,27.70
2018-02-10T00:24:54.295Z,28.63
2018-02-10T00:27:21.774Z,29.40
2018-02-10T00:29:49.263Z,29.23
2018-02-10T00:32:16.744Z,28.37
2018-02-10T00:34:44.234Z,27.60
2018-02-10T00:37:12.475Z,30.33
2018-02-10T00:39:39.975Z,25.33
2018-02-10T00:42:07.472Z,26.37
2018-02-10T00:44:34.944Z,27.53
2018-02-10T00:47:02.435Z,29.00
2018-02-10T00:49:29.914Z,31.23
2018-02-10T00:51:57.455Z,25.57
2018-02-10T00:54:24.943Z,25.73
2018-02-10T00:56:52.462Z,26.23
2018-02-10T00:59:20.067Z,28.00
2018-02-10T01:01:47.607Z,27.00
2018-02-10T01:04:15.178Z,26.43
2018-02-10T01:06:42.655Z,26.90
2018-02-10T01:09:10.155Z,28.50
2018-02-10T01:11:37.630Z,30.40
2018-02-10T01:14:05.123Z,33.50
2018-02-10T01:16:32.622Z,29.10
2018-02-10T01:19:00.135Z,33.40
2018-02-10T01:21:27.707Z,35.20
2018-02-10T01:23:55.253Z,32.03
2018-02-10T01:26:23.535Z,31.97
2018-02-10T01:28:51.010Z,32.90
2018-02-10T01:31:18.574Z,29.03
2018-02-10T01:33:46.046Z,34.60
2018-02-10T01:36:13.531Z,31.87
2018-02-10T01:38:41.803Z,32.37
2018-02-10T01:41:09.308Z,34.07
2018-02-10T01:43:36.846Z,33.47
2018-02-10T01:46:04.351Z,33.23
2018-02-10T01:48:31.843Z,35.63
2018-02-10T01:50:59.323Z,32.50
2018-02-10T01:53:26.818Z,34.67
2018-02-10T01:55:54.290Z,34.73
2018-02-10T01:58:21.800Z,37.47
2018-02-10T02:00:49.372Z,35.77
2018-02-10T02:03:16.870Z,37.17
2018-02-10T02:05:44.378Z,36.30
2018-02-10T02:08:11.888Z,36.70
2018-02-10T02:10:39.379Z,34.03
2018-02-10T02:13:06.854Z,37.53
2018-02-10T02:15:34.398Z,39.20
2018-02-10T02:18:01.867Z,42.83
2018-02-10T02:20:29.435Z,40.77
2018-02-10T02:22:57.687Z,41.57
2018-02-10T02:25:25.179Z,38.00
2018-02-10T02:27:53.419Z,38.73
2018-02-10T02:30:20.895Z,39.63
2018-02-10T02:32:48.383Z,40.37
2018-02-10T02:35:15.858Z,43.57
2018-02-10T02:37:43.435Z,41.20
2018-02-10T02:40:11.061Z,41.20
2018-02-10T02:42:39.278Z,40.40
2018-02-10T02:45:06.767Z,46.00
2018-02-10T02:47:34.262Z,46.00
2018-02-10T02:50:02.503Z,46.33
2018-02-10T02:52:29.978Z,43.03
2018-02-10T02:54:57.575Z,39.83
2018-02-10T02:57:25.498Z,46.57
2018-02-10T02:59:52.994Z,41.07
2018-02-10T03:02:20.471Z,41.83
2018-02-10T03:04:47.958Z,45.90
2018-02-10T03:07:15.434Z,41.93
2018-02-10T03:09:42.939Z,40.37
2018-02-10T03:12:10.470Z,46.47
2018-02-10T03:14:38.710Z,41.83
2018-02-10T03:17:06.235Z,43.33
2018-02-10T03:19:34.479Z,44.93
2018-02-10T03:22:01.981Z,48.03
2018-02-10T03:24:29.562Z,42.47
2018-02-10T03:26:57.047Z,40.43
2018-02-10T03:29:25.312Z,47.87
2018-02-10T03:31:53.573Z,45.87
2018-02-10T03:34:21.079Z,43.47
2018-02-10T03:36:50.067Z,43.00
2018-02-10T03:39:17.565Z,45.37
2018-02-10T03:41:45.843Z,48.80
2018-02-10T03:44:13.318Z,45.80
2018-02-10T03:46:40.811Z,42.20
2018-02-10T03:49:08.284Z,41.63
2018-02-10T03:51:35.822Z,43.93
2018-02-10T03:54:03.307Z,43.87
2018-02-10T03:56:31.578Z,44.43
2018-02-10T03:58:59.059Z,43.73
2018-02-10T04:01:26.534Z,47.03
2018-02-10T04:03:54.822Z,48.90
2018-02-10T04:06:23.067Z,46.17
2018-02-10T04:08:50.554Z,41.57
2018-02-10T04:11:18.031Z,44.43
2018-02-10T04:13:45.526Z,47.10
2018-02-10T04:16:13.767Z,45.97
2018-02-10T04:18:41.243Z,44.10
2018-02-10T04:21:08.736Z,47.57
2018-02-10T04:23:37.061Z,45.80
2018-02-10T04:26:04.632Z,48.13
2018-02-10T04:28:32.206Z,41.97
2018-02-10T04:30:59.778Z,40.70
2018-02-10T04:33:27.254Z,44.57
2018-02-10T04:35:54.791Z,42.03
2018-02-10T04:38:22.279Z,44.87
2018-02-10T04:40:50.519Z,44.67
2018-02-10T04:43:18.014Z,47.83
2018-02-10T04:45:45.491Z,43.67
2018-02-10T04:48:13.057Z,49.80
2018-02-10T04:50:40.532Z,42.47
2018-02-10T04:53:08.103Z,48.60
2018-02-10T04:55:35.675Z,41.73
2018-02-10T04:58:03.251Z,43.83
2018-02-10T05:00:30.743Z,41.13
2018-02-10T05:02:58.981Z,48.10
2018-02-10T05:05:26.582Z,44.03
2018-02-10T05:10:23.291Z,39.87
2018-02-10T05:12:50.788Z,39.27
2018-02-10T05:15:18.335Z,43.60
2018-02-10T05:17:45.879Z,45.43
2018-02-10T05:20:14.167Z,43.87
2018-02-10T05:22:42.477Z,43.73
2018-02-10T05:25:10.710Z,42.83
2018-02-10T05:27:38.182Z,40.83
2018-02-10T05:30:05.722Z,43.17
2018-02-10T05:32:33.254Z,44.73
2018-02-10T05:35:01.519Z,44.63
2018-02-10T05:37:29.020Z,44.37
2018-02-10T05:39:56.591Z,44.80
2018-02-10T05:42:24.086Z,41.13
2018-02-10T05:44:51.563Z,42.10
2018-02-10T05:47:19.062Z,38.63
2018-02-10T05:49:46.534Z,43.87
2018-02-10T05:52:14.014Z,45.20
2018-02-10T05:54:41.498Z,42.90
2018-02-10T05:57:08.974Z,41.43
2018-02-10T05:59:36.466Z,45.17
2018-02-10T06:02:04.734Z,42.50
2018-02-10T06:04:32.308Z,46.33
2018-02-10T06:06:59.804Z,44.60
2018-02-10T06:09:28.047Z,45.93
2018-02-10T06:11:55.645Z,41.33
2018-02-10T06:14:23.128Z,46.07
2018-02-10T06:16:51.389Z,45.40
2018-02-10T06:19:18.867Z,40.10
2018-02-10T06:21:46.369Z,47.67
2018-02-10T06:24:13.917Z,38.73
2018-02-10T06:26:41.478Z,43.53
2018-02-10T06:29:08.962Z,40.43
2018-02-10T06:31:37.207Z,44.50
2018-02-10T06:34:04.743Z,39.93
2018-02-10T06:36:32.219Z,47.90
2018-02-10T06:38:59.764Z,41.67
2018-02-10T06:41:27.895Z,45.63
2018-02-10T06:43:55.410Z,40.07
2018-02-10T06:46:22.979Z,44.53
2018-02-10T06:48:50.454Z,39.00
2018-02-10T06:51:17.948Z,38.83
2018-02-10T06:53:46.193Z,38.80
2018-02-10T06:56:13.712Z,39.80
2018-02-10T06:58:41.284Z,42.03
2018-02-10T07:01:08.822Z,45.17
2018-02-10T07:03:36.399Z,39.73
2018-02-10T07:06:03.870Z,37.27
2018-02-10T07:08:31.440Z,40.87
2018-02-10T07:10:59.051Z,45.03
2018-02-10T07:13:26.534Z,43.43
2018-02-10T07:15:54.019Z,36.33
2018-02-10T07:18:21.518Z,45.97
2018-02-10T07:20:49.025Z,41.43
2018-02-10T07:23:16.600Z,38.93
2018-02-10T07:25:44.192Z,35.07
2018-02-10T07:28:11.741Z,41.50
2018-02-10T07:30:39.277Z,42.00
2018-02-10T07:33:06.762Z,54.23
2018-02-10T07:35:35.039Z,38.77
2018-02-10T07:38:02.522Z,37.47
2018-02-10T07:40:30.762Z,34.77
2018-02-10T07:42:58.254Z,33.00
2018-02-10T07:45:25.729Z,35.87
2018-02-10T07:47:53.308Z,33.70
2018-02-10T07:50:20.794Z,37.33
2018-02-10T07:52:49.066Z,37.13
2018-02-10T07:55:16.620Z,35.17
2018-02-10T07:57:44.095Z,38.60
2018-02-10T08:00:11.673Z,39.53
2018-02-10T08:02:39.146Z,42.90
2018-02-10T08:05:06.723Z,37.50
2018-02-10T08:07:34.210Z,41.23
2018-02-10T08:10:02.447Z,36.20
2018-02-10T08:12:29.942Z,35.57
2018-02-10T08:14:57.419Z,34.90
2018-02-10T08:17:24.919Z,36.33
2018-02-10T08:19:53.182Z,33.77
2018-02-10T08:22:20.683Z,37.00
2018-02-10T08:24:48.171Z,34.00
2018-02-10T08:27:15.642Z,34.77
2018-02-10T08:29:43.136Z,31.17
2018-02-10T08:32:10.630Z,29.33
2018-02-10T08:34:38.122Z,32.73
2018-02-10T08:37:06.532Z,33.77
2018-02-10T08:39:34.754Z,30.00
2018-02-10T08:42:02.238Z,36.40
2018-02-10T08:44:29.738Z,41.37
2018-02-10T08:46:57.999Z,29.40
2018-02-10T08:49:25.477Z,34.10
2018-02-10T08:51:53.050Z,34.73
2018-02-10T08:54:20.556Z,34.03
2018-02-10T08:56:48.042Z,33.33
2018-02-10T08:59:15.595Z,37.13
2018-02-10T09:01:43.818Z,50.67
2018-02-10T09:04:11.309Z,26.37
2018-02-10T09:06:38.814Z,25.67
2018-02-10T09:09:07.090Z,32.90
2018-02-10T09:11:34.650Z,45.70
2018-02-10T09:14:02.262Z,29.63
2018-02-10T09:16:29.802Z,24.30
2018-02-10T09:18:57.280Z,25.43
2018-02-10T09:21:25.539Z,25.07
2018-02-10T09:23:53.010Z,26.63
2018-02-10T09:26:20.602Z,28.57
2018-02-10T09:28:48.170Z,26.13
2018-02-10T09:31:15.642Z,26.20
2018-02-10T09:33:43.135Z,26.77
2018-02-10T09:36:11.378Z,26.27
2018-02-10T09:38:38.863Z,31.33
2018-02-10T09:41:06.441Z,30.47
2018-02-10T09:43:33.931Z,29.00
2018-02-10T09:46:02.198Z,30.30
2018-02-10T09:48:29.678Z,27.80
2018-02-10T09:50:57.168Z,26.63
2018-02-10T09:53:33.148Z,25.80
2018-02-10T09:56:00.630Z,27.53
2018-02-10T09:58:28.104Z,32.10
2018-02-10T10:00:55.741Z,26.33
2018-02-10T10:03:23.983Z,24.57
2018-02-10T10:05:51.454Z,29.00
2018-02-10T10:08:29.810Z,27.87
2018-02-10T10:10:58.101Z,31.63
2018-02-10T10:13:25.592Z,28.47
2018-02-10T10:15:53.893Z,24.80
2018-02-10T10:18:21.386Z,27.93
2018-02-10T10:20:48.894Z,23.57
2018-02-10T10:23:16.503Z,28.13
2018-02-10T10:25:44.759Z,33.07
2018-02-10T10:28:13.050Z,28.03
2018-02-10T10:30:40.540Z,27.73
2018-02-10T10:33:08.782Z,26.87
2018-02-10T10:35:37.096Z,31.53
2018-02-10T10:38:04.670Z,28.03
2018-02-10T10:40:32.168Z,29.93
2018-02-10T10:43:00.417Z,32.27
2018-02-10T10:45:27.922Z,28.27
2018-02-10T10:47:56.174Z,34.70
2018-02-10T10:50:23.665Z,29.67
2018-02-10T10:52:51.979Z,29.93
2018-02-10T10:55:19.454Z,25.50
2018-02-10T10:57:46.926Z,30.10
2018-02-10T11:00:14.420Z,27.57
2018-02-10T11:02:41.930Z,27.47
2018-02-10T11:05:09.406Z,27.63
2018-02-10T11:07:37.685Z,27.33
2018-02-10T11:10:05.395Z,27.30
2018-02-10T11:12:32.937Z,27.07
2018-02-10T11:15:00.440Z,30.10
2018-02-10T11:17:27.927Z,27.73
2018-02-10T11:19:55.406Z,30.23
2018-02-10T11:22:22.910Z,28.50
2018-02-10T11:24:50.382Z,39.63
2018-02-10T11:27:17.887Z,36.07
2018-02-10T11:29:45.460Z,35.80
2018-02-10T11:32:12.938Z,35.90
2018-02-10T11:34:40.426Z,35.20
2018-02-10T11:37:07.972Z,40.77
2018-02-10T11:39:35.456Z,35.70
2018-02-10T11:42:03.014Z,32.03
2018-02-10T11:44:30.554Z,32.57
2018-02-10T11:46:58.131Z,30.23
2018-02-10T11:49:25.694Z,30.00
2018-02-10T11:51:53.185Z,33.10
2018-02-10T11:54:21.422Z,32.40
2018-02-10T11:56:48.912Z,34.90
2018-02-10T11:59:16.382Z,30.70
2018-02-10T12:01:43.879Z,34.47
2018-02-10T12:04:12.119Z,34.13
2018-02-10T12:06:39.618Z,30.63
2018-02-10T12:09:07.199Z,32.80
2018-02-10T12:11:34.678Z,35.73
2018-02-10T12:14:02.950Z,38.83
2018-02-10T12:16:30.428Z,36.17
2018-02-10T12:18:58.000Z,31.60
2018-02-10T12:21:25.480Z,33.43
2018-02-10T12:23:53.750Z,27.97
2018-02-10T12:26:21.238Z,28.60
2018-02-10T12:28:49.479Z,29.50
2018-02-10T12:31:16.983Z,31.30
2018-02-10T12:33:44.551Z,28.57
2018-02-10T12:36:12.042Z,27.77
2018-02-10T12:38:40.278Z,30.53
2018-02-10T12:41:07.759Z,31.60
2018-02-10T12:43:35.250Z,31.70
2018-02-10T12:46:02.719Z,32.50
2018-02-10T12:48:35.938Z,44.57
2018-02-10T12:51:03.450Z,45.23
2018-02-10T12:53:31.006Z,33.77
2018-02-10T12:55:58.905Z,34.03
2018-02-10T12:58:26.458Z,36.47
2018-02-10T13:00:53.958Z,37.63
2018-02-10T13:03:21.470Z,30.77
2018-02-10T13:05:48.942Z,31.63
2018-02-10T13:08:16.430Z,36.10
2018-02-10T13:10:44.670Z,35.97
2018-02-10T13:13:12.165Z,27.40
2018-02-10T13:15:39.742Z,32.20
2018-02-10T13:18:07.214Z,32.50
2018-02-10T13:20:34.698Z,32.40
2018-02-10T13:23:02.943Z,28.83
2018-02-10T13:25:30.573Z,33.97
2018-02-10T13:27:58.814Z,32.10
2018-02-10T13:30:26.331Z,34.23
2018-02-10T13:32:53.816Z,37.23
2018-02-10T13:35:21.292Z,43.67
2018-02-10T13:37:48.773Z,52.80
2018-02-10T13:40:16.246Z,46.57
2018-02-10T13:42:43.750Z,44.13
2018-02-10T13:45:11.223Z,38.33
2018-02-10T13:47:38.794Z,39.60
2018-02-10T13:50:06.296Z,35.30
2018-02-10T13:52:33.766Z,38.43
2018-02-10T13:55:01.291Z,55.87
2018-02-10T13:57:28.770Z,52.13
2018-02-10T13:59:56.350Z,47.37
2018-02-10T14:02:23.828Z,38.30
2018-02-10T14:04:52.242Z,41.03
2018-02-10T14:07:19.783Z,37.50
2018-02-10T14:09:47.259Z,34.67
2018-02-10T14:12:14.753Z,40.03
2018-02-10T14:14:42.429Z,46.73
2018-02-10T14:17:09.915Z,41.37
2018-02-10T14:19:37.388Z,41.63
2018-02-10T14:22:04.877Z,48.43
2018-02-10T14:24:32.357Z,42.30
2018-02-10T14:26:59.835Z,36.60
2018-02-10T14:29:27.351Z,26.50
2018-02-10T14:31:54.923Z,25.83
2018-02-10T14:34:22.411Z,22.63
2018-02-10T14:36:49.887Z,19.70
2018-02-10T14:39:17.436Z,19.33
2018-02-10T14:41:45.007Z,20.93
2018-02-10T14:44:12.481Z,20.43
2018-02-10T14:46:39.979Z,21.30
2018-02-10T14:49:07.491Z,24.87
2018-02-10T14:51:34.988Z,28.03
2018-02-10T14:54:03.233Z,39.83
2018-02-10T14:56:30.830Z,63.27
2018-02-10T14:58:59.074Z,39.67
2018-02-10T15:01:26.550Z,32.53
2018-02-10T15:03:54.038Z,33.13
2018-02-10T15:06:21.614Z,34.13
2018-02-10T15:08:49.118Z,38.50
2018-02-10T15:11:16.692Z,33.43
2018-02-10T15:13:44.197Z,31.57
2018-02-10T15:16:11.737Z,42.33
2018-02-10T15:18:39.306Z,35.07
2018-02-10T15:21:06.794Z,34.17
2018-02-10T15:23:34.351Z,31.60
2018-02-10T15:26:01.838Z,32.10
2018-02-10T15:28:29.326Z,34.07
2018-02-10T15:31:08.690Z,38.03
2018-02-10T15:33:48.095Z,34.90
2018-02-10T15:36:15.622Z,28.93
2018-02-10T15:38:43.099Z,32.53
2018-02-10T15:41:10.574Z,32.30
2018-02-10T15:43:38.058Z,32.13
2018-02-10T15:46:06.335Z,40.10
2018-02-10T15:48:34.594Z,35.60
2018-02-10T15:51:02.075Z,33.33
2018-02-10T15:53:29.677Z,30.70
2018-02-10T15:55:57.927Z,28.03
2018-02-10T15:58:25.410Z,31.27
2018-02-10T16:00:52.918Z,30.73
2018-02-10T16:03:20.491Z,29.73
2018-02-10T16:05:47.974Z,29.97
2018-02-10T16:08:15.505Z,30.60
2018-02-10T16:10:43.010Z,27.77
2018-02-10T16:13:10.506Z,21.73
2018-02-10T16:15:38.016Z,28.17
2018-02-10T16:18:05.514Z,25.93
2018-02-10T16:20:33.010Z,29.60
2018-02-10T16:23:00.523Z,21.37
2018-02-10T16:25:28.031Z,28.23
2018-02-10T16:27:55.542Z,24.47
2018-02-10T16:30:23.068Z,20.03
2018-02-10T16:32:50.606Z,16.80
2018-02-10T16:35:18.094Z,16.00
2018-02-10T16:37:46.330Z,21.30
2018-02-10T16:40:13.828Z,13.60
2018-02-10T16:42:41.502Z,16.60
2018-02-10T16:45:09.037Z,21.90
2018-02-10T16:47:36.524Z,19.97
2018-02-10T16:50:03.994Z,17.73
2018-02-10T16:52:31.470Z,15.07
2018-02-10T16:54:58.958Z,16.83
2018-02-10T16:57:26.446Z,19.67
2018-02-10T16:59:55.408Z,20.77
2018-02-10T17:02:22.987Z,17.37
2018-02-10T17:04:50.485Z,19.97
2018-02-10T17:07:18.296Z,16.90
2018-02-10T17:09:45.848Z,22.00
2018-02-10T17:12:14.094Z,21.47
2018-02-10T17:14:41.579Z,18.30
2018-02-10T17:17:09.050Z,23.50
2018-02-10T17:19:36.670Z,23.73
2018-02-10T17:22:04.243Z,22.27
2018-02-10T17:24:31.816Z,14.73
2018-02-10T17:26:59.307Z,16.87
2018-02-10T17:29:26.786Z,14.03
2018-02-10T17:31:54.294Z,21.90
2018-02-10T17:34:21.765Z,16.43
2018-02-10T17:36:49.266Z,20.10
2018-02-10T17:39:16.741Z,20.73
2018-02-10T17:41:44.215Z,15.40
2018-02-10T17:44:11.751Z,20.63
2018-02-10T17:46:39.349Z,16.37
2018-02-10T17:49:06.835Z,14.43
2018-02-10T17:51:34.317Z,15.27
2018-02-10T17:54:01.814Z,17.73
2018-02-10T17:56:29.333Z,17.73
2018-02-10T17:58:56.871Z,17.00
2018-02-10T18:01:24.376Z,17.90
2018-02-10T18:03:51.858Z,21.83
2018-02-10T18:06:19.346Z,27.03
2018-02-10T18:08:46.856Z,30.17
2018-02-10T18:11:14.422Z,37.90
2018-02-10T18:13:41.927Z,30.87
2018-02-10T18:16:09.499Z,29.47
2018-02-10T18:18:37.059Z,28.93
2018-02-10T18:21:05.294Z,25.23
2018-02-10T18:23:32.778Z,35.23
2018-02-10T18:26:00.287Z,29.07
2018-02-10T18:28:28.662Z,19.40
2018-02-10T18:30:56.134Z,16.80
2018-02-10T18:33:24.378Z,15.00
2018-02-10T18:35:51.878Z,16.47
2018-02-10T18:38:19.358Z,16.73
2018-02-10T18:40:46.846Z,15.50
2018-02-10T18:43:15.090Z,17.20
2018-02-10T18:46:19.701Z,19.83
2018-02-10T18:48:47.226Z,58.47
2018-02-10T18:51:16.226Z,14.83
2018-02-10T18:53:43.694Z,11.30
2018-02-10T18:56:11.208Z,13.87
2018-02-10T18:58:38.694Z,15.43
2018-02-10T19:01:06.218Z,14.17
2018-02-10T19:03:33.713Z,17.67
2018-02-10T19:06:01.253Z,14.73
2018-02-10T19:08:28.754Z,14.63
2018-02-10T19:10:57.002Z,13.70
2018-02-10T19:13:24.475Z,14.23
2018-02-10T19:15:51.953Z,11.87
2018-02-10T19:18:19.525Z,13.63
2018-02-10T19:20:47.014Z,14.67
2018-02-10T19:23:15.254Z,18.93
2018-02-10T19:25:42.738Z,15.83
2018-02-10T19:28:10.226Z,19.30
2018-02-10T19:30:37.798Z,77.20
2018-02-10T19:33:05.270Z,39.83
2018-02-10T19:35:32.774Z,17.87
2018-02-10T19:38:00.347Z,16.13
2018-02-10T19:40:27.822Z,22.73
2018-02-10T19:42:55.362Z,16.90
2018-02-10T19:45:23.646Z,14.53
2018-02-10T19:47:51.164Z,13.97
2018-02-10T19:50:18.636Z,11.37
2018-02-10T19:52:46.115Z,13.17
2018-02-10T19:55:13.627Z,13.67
2018-02-10T19:57:41.099Z,16.13
2018-02-10T20:00:08.666Z,25.47
2018-02-10T20:02:36.138Z,23.67
2018-02-10T20:05:03.640Z,67.83
2018-02-10T20:07:31.107Z,13.80
2018-02-10T20:09:59.367Z,11.53
2018-02-10T20:12:26.884Z,12.90
2018-02-10T20:14:54.442Z,10.30
2018-02-10T20:17:21.974Z,18.07
2018-02-10T20:19:49.546Z,59.00
2018-02-10T20:22:17.157Z,14.23
2018-02-10T20:24:44.706Z,14.53
2018-02-10T20:27:12.378Z,10.60
2018-02-10T20:29:39.854Z,11.40
2018-02-10T20:32:08.086Z,13.00
2018-02-10T20:34:35.574Z,14.67
2018-02-10T20:37:03.051Z,24.87
2018-02-10T20:39:30.550Z,22.27
2018-02-10T20:41:58.795Z,11.30
2018-02-10T20:44:26.262Z,10.40
2018-02-10T20:46:53.757Z,126.33
2018-02-10T20:49:21.238Z,8.93
2018-02-10T20:51:48.740Z,9.33
2018-02-10T20:54:16.226Z,8.50
2018-02-10T20:56:43.722Z,12.03
2018-02-10T20:59:11.189Z,8.53
2018-02-10T21:01:38.657Z,11.40
2018-02-10T21:04:06.134Z,7.60
2018-02-10T21:06:33.663Z,10.73
2018-02-10T21:09:01.902Z,8.50
2018-02-10T21:11:29.367Z,8.23
2018-02-10T21:13:56.858Z,7.00
2018-02-10T21:16:24.340Z,8.93
2018-02-10T21:18:52.578Z,7.90
2018-02-10T21:21:20.078Z,8.23
2018-02-10T21:23:47.554Z,6.90
2018-02-10T21:26:15.035Z,8.17
2018-02-10T21:28:43.274Z,6.33
2018-02-10T21:31:10.829Z,9.47
2018-02-10T21:33:38.314Z,5.20
2018-02-10T21:36:05.860Z,13.43
2018-02-10T21:38:33.434Z,5.07
2018-02-10T21:41:01.662Z,4.67
2018-02-10T21:43:29.146Z,7.03
2018-02-10T21:45:56.623Z,4.77
2018-02-10T21:48:24.235Z,4.27
2018-02-10T21:50:51.703Z,4.40
2018-02-10T21:53:19.244Z,5.20
2018-02-10T21:55:46.720Z,6.43
2018-02-10T21:58:14.186Z,6.63
2018-02-10T22:00:41.731Z,6.23
2018-02-10T22:03:09.319Z,5.37
2018-02-10T22:05:36.822Z,18.87
2018-02-10T22:08:05.118Z,4.73
2018-02-10T22:10:33.367Z,3.00
2018-02-10T22:13:00.946Z,3.83
2018-02-10T22:15:29.195Z,4.37
2018-02-10T22:17:56.698Z,4.83
2018-02-10T22:20:24.209Z,5.10
2018-02-10T22:22:51.713Z,3.80
2018-02-10T22:25:19.194Z,5.10
2018-02-10T22:27:46.669Z,14.23
2018-02-10T22:30:14.254Z,6.83
2018-02-10T22:32:41.822Z,5.27
2018-02-10T22:35:09.303Z,6.20
2018-02-10T22:37:36.774Z,13.73
2018-02-10T22:40:04.264Z,7.90
2018-02-10T22:42:32.564Z,4.53
2018-02-10T22:45:00.046Z,5.77
2018-02-10T22:47:27.543Z,7.20
2018-02-10T22:49:55.034Z,4.80
2018-02-10T22:52:22.605Z,5.80
2018-02-10T22:54:50.070Z,6.30
2018-02-10T22:57:17.646Z,5.30
2018-02-10T22:59:45.118Z,4.97
2018-02-10T23:02:12.586Z,5.30
2018-02-10T23:04:40.162Z,8.07
2018-02-10T23:07:08.490Z,6.43
2018-02-10T23:09:35.967Z,5.47
2018-02-10T23:12:03.429Z,6.53
2018-02-10T23:15:45.519Z,11.97
2018-02-10T23:18:13.026Z,7.80
2018-02-10T23:20:40.558Z,7.17
2018-02-10T23:23:09.530Z,4.90
2018-02-10T23:25:37.074Z,10.10
2018-02-10T23:28:04.559Z,6.63
2018-02-10T23:30:32.036Z,8.97
2018-02-10T23:32:59.542Z,5.03
2018-02-10T23:35:34.955Z,9.00
2018-02-10T23:38:02.455Z,18.90
2018-02-10T23:40:29.927Z,6.27
2018-02-10T23:42:57.452Z,7.77
2018-02-10T23:45:24.936Z,9.07
2018-02-10T23:47:52.403Z,8.63
2018-02-10T23:50:19.962Z,7.70
2018-02-10T23:52:48.190Z,10.03
2018-02-10T23:55:15.686Z,4.13
2018-02-10T23:57:43.154Z,7.30
